createdAt,value
2022-08-22T00:03:07.364Z,63.71
2022-08-22T00:04:06.377Z,70.79
2022-08-22T00:07:56.297Z,70.67
2022-08-22T00:25:29.479Z,70.17
2022-08-22T00:35:34.724Z,70.91
2022-08-22T00:39:40.790Z,70.82
2022-08-22T00:42:51.256Z,70.54
2022-08-22T00:56:52.642Z,71.89
2022-08-22T01:10:53.091Z,73.80
2022-08-22T01:21:31.416Z,73.12
2022-08-22T01:28:09.965Z,72.12
2022-08-22T01:31:28.736Z,73.69
2022-08-22T01:42:12.804Z,73.24
2022-08-22T01:45:49.240Z,73.17
2022-08-22T01:48:27.576Z,74.41
2022-08-22T01:51:30.150Z,73.85
2022-08-22T01:54:05.422Z,73.99
2022-08-22T01:57:15.460Z,74.73
2022-08-22T02:00:18.410Z,74.09
2022-08-22T02:03:28.970Z,74.10
2022-08-22T02:06:24.794Z,73.78
2022-08-22T02:09:42.395Z,74.79
2022-08-22T02:12:52.994Z,74.90
2022-08-22T02:16:23.985Z,75.42
2022-08-22T02:19:31.158Z,75.24
2022-08-22T02:22:44.566Z,76.63
2022-08-22T02:26:25.268Z,75.49
2022-08-22T02:29:24.483Z,75.70
2022-08-22T02:32:11.999Z,76.23
2022-08-22T02:34:55.231Z,76.31
2022-08-22T02:37:55.903Z,76.17
2022-08-22T02:42:00.868Z,76.71
2022-08-22T02:58:37.675Z,76.42
2022-08-22T03:01:23.383Z,77.76
2022-08-22T03:04:31.614Z,76.25
2022-08-22T03:11:19.364Z,77.68
2022-08-22T03:15:07.198Z,78.23
2022-08-22T03:18:43.169Z,77.08
2022-08-22T03:25:15.561Z,77.48
2022-08-22T03:29:20.564Z,77.99
2022-08-22T04:03:46.568Z,78.15
2022-08-22T04:31:47.316Z,79.95
2022-08-22T04:42:31.744Z,78.58
2022-08-22T04:49:36.768Z,79.16
2022-08-22T04:56:58.446Z,79.18
2022-08-22T05:02:51.242Z,79.10
2022-08-22T05:05:24.208Z,79.98
2022-08-22T05:08:00.625Z,79.34
2022-08-22T05:10:37.910Z,79.96
2022-08-22T05:13:19.724Z,79.07
2022-08-22T05:15:50.490Z,79.13
2022-08-22T05:18:29.548Z,79.93
2022-08-22T05:21:01.546Z,79.13
2022-08-22T05:23:54.112Z,79.19
2022-08-22T05:26:21.558Z,79.55
2022-08-22T05:28:53.501Z,79.20
2022-08-22T05:32:09.073Z,79.23
2022-08-22T05:34:41.525Z,79.19
2022-08-22T05:37:18.195Z,79.22
2022-08-22T05:39:51.180Z,79.13
2022-08-22T05:42:26.871Z,79.17
2022-08-22T05:44:55.104Z,79.05
2022-08-22T05:47:27.420Z,79.15
2022-08-22T05:50:18.389Z,80.27
2022-08-22T05:53:17.307Z,79.48
2022-08-22T05:56:11.560Z,78.56
2022-08-22T05:58:59.927Z,79.66
2022-08-22T06:02:00.097Z,78.87
2022-08-22T06:04:39.112Z,79.59
2022-08-22T06:07:21.060Z,78.57
2022-08-22T06:09:47.597Z,78.76
2022-08-22T06:12:24.049Z,78.56
2022-08-22T06:15:03.235Z,78.05
2022-08-22T06:17:51.386Z,77.79
2022-08-22T06:20:33.440Z,77.90
2022-08-22T06:23:03.028Z,77.75
2022-08-22T06:25:33.496Z,77.49
2022-08-22T06:28:06.774Z,77.49
2022-08-22T06:30:35.678Z,78.04
2022-08-22T06:33:08.410Z,78.20
2022-08-22T06:36:08.159Z,78.37
2022-08-22T06:38:58.426Z,78.23
2022-08-22T06:41:30.209Z,78.41
2022-08-22T06:43:58.933Z,78.06
2022-08-22T06:46:28.993Z,79.86
2022-08-22T06:49:02.182Z,78.64
2022-08-22T06:51:29.954Z,77.86
2022-08-22T06:54:03.749Z,77.84
2022-08-22T06:56:37.894Z,76.93
2022-08-22T06:59:11.552Z,75.80
2022-08-22T07:01:47.449Z,75.35
2022-08-22T07:04:15.905Z,75.59
2022-08-22T07:06:50.267Z,74.71
2022-08-22T07:09:23.618Z,74.57
2022-08-22T07:11:52.362Z,73.84
2022-08-22T07:14:41.739Z,73.92
2022-08-22T07:17:16.271Z,71.95
2022-08-22T07:20:08.364Z,71.47
2022-08-22T07:22:37.570Z,70.51
2022-08-22T07:25:13.297Z,70.63
2022-08-22T07:27:56.783Z,68.99
2022-08-22T07:30:27.934Z,69.82
2022-08-22T07:33:26.726Z,67.85
2022-08-22T07:35:59.124Z,65.55
2022-08-22T07:38:45.567Z,63.97
2022-08-22T07:41:22.420Z,63.55
2022-08-22T07:43:58.514Z,63.33
2022-08-22T07:46:37.064Z,62.60
2022-08-22T07:49:13.794Z,61.29
2022-08-22T07:51:49.673Z,60.04
2022-08-22T07:54:48.254Z,60.24
2022-08-22T07:57:31.741Z,56.47
2022-08-22T08:00:01.142Z,56.81
2022-08-22T08:02:28.761Z,56.60
2022-08-22T08:04:58.005Z,55.44
2022-08-22T08:07:28.948Z,54.64
2022-08-22T08:10:03.535Z,54.42
2022-08-22T08:12:41.020Z,50.93
2022-08-22T08:15:12.496Z,48.93
2022-08-22T08:17:40.055Z,47.77
2022-08-22T08:20:11.862Z,46.86
2022-08-22T08:22:43.004Z,45.49
2022-08-22T08:25:15.554Z,48.14
2022-08-22T08:28:01.048Z,45.58
2022-08-22T08:30:46.821Z,44.39
2022-08-22T08:33:26.152Z,42.68
2022-08-22T08:36:21.672Z,41.02
2022-08-22T08:39:35.349Z,40.18
2022-08-22T08:42:05.181Z,41.20
2022-08-22T08:44:52.329Z,42.33
2022-08-22T08:47:31.372Z,39.64
2022-08-22T08:50:16.333Z,39.34
2022-08-22T08:53:01.192Z,39.26
2022-08-22T08:56:19.655Z,39.15
2022-08-22T08:59:13.573Z,38.46
2022-08-22T09:02:24.991Z,38.57
2022-08-22T09:04:54.210Z,38.55
2022-08-22T09:08:05.900Z,38.80
2022-08-22T09:10:59.590Z,38.28
2022-08-22T09:14:04.903Z,38.42
2022-08-22T09:16:53.494Z,37.73
2022-08-22T09:19:49.730Z,37.40
2022-08-22T09:23:04.221Z,37.54
2022-08-22T09:26:05.817Z,37.83
2022-08-22T09:29:08.089Z,38.47
2022-08-22T09:31:54.887Z,38.37
2022-08-22T09:34:59.904Z,36.73
2022-08-22T09:37:47.873Z,35.80
2022-08-22T09:43:06.570Z,36.34
2022-08-22T09:45:36.189Z,34.87
2022-08-22T09:48:34.569Z,34.77
2022-08-22T09:51:33.169Z,34.54
2022-08-22T09:54:19.519Z,35.55
2022-08-22T09:56:49.130Z,36.09
2022-08-22T09:59:43.847Z,35.15
2022-08-22T10:02:50.323Z,34.33
2022-08-22T10:05:35.255Z,34.47
2022-08-22T10:08:20.006Z,34.01
2022-08-22T10:11:12.781Z,33.15
2022-08-22T10:13:57.317Z,32.77
2022-08-22T10:16:59.048Z,32.84
2022-08-22T10:19:49.471Z,32.36
2022-08-22T10:22:41.307Z,33.14
2022-08-22T10:25:33.563Z,32.48
2022-08-22T10:28:13.038Z,32.29
2022-08-22T10:30:54.884Z,31.29
2022-08-22T10:33:33.523Z,31.15
2022-08-22T10:36:12.063Z,30.51
2022-08-22T10:38:49.133Z,31.10
2022-08-22T10:41:38.560Z,31.63
2022-08-22T10:44:21.479Z,30.81
2022-08-22T10:47:05.360Z,31.07
2022-08-22T10:49:45.648Z,31.80
2022-08-22T10:52:46.895Z,31.42
2022-08-22T10:55:33.052Z,32.35
2022-08-22T10:58:07.571Z,33.58
2022-08-22T11:00:50.148Z,33.77
2022-08-22T11:03:23.325Z,33.17
2022-08-22T11:05:54.294Z,34.02
2022-08-22T11:08:44.394Z,34.39
2022-08-22T11:11:32.480Z,33.67
2022-08-22T11:14:47.712Z,33.53
2022-08-22T11:17:28.806Z,32.62
2022-08-22T11:20:19.678Z,31.14
2022-08-22T11:23:04.412Z,30.68
2022-08-22T11:25:41.328Z,30.68
2022-08-22T11:28:20.508Z,30.48
2022-08-22T11:31:07.154Z,29.70
2022-08-22T11:34:07.705Z,29.50
2022-08-22T11:36:50.671Z,28.89
2022-08-22T11:39:28.434Z,28.66
2022-08-22T11:41:57.875Z,28.93
2022-08-22T11:44:34.814Z,28.74
2022-08-22T11:47:10.907Z,28.35
2022-08-22T11:50:19.805Z,28.37
2022-08-22T11:53:15.624Z,28.80
2022-08-22T11:55:48.518Z,29.97
2022-08-22T11:58:43.924Z,30.00
2022-08-22T12:01:21.083Z,30.11
2022-08-22T12:04:12.943Z,29.51
2022-08-22T12:07:00.010Z,29.73
2022-08-22T12:09:43.686Z,29.34
2022-08-22T12:12:24.334Z,29.16
2022-08-22T12:14:51.118Z,30.12
2022-08-22T12:18:01.030Z,29.58
2022-08-22T12:20:52.678Z,29.32
2022-08-22T12:23:49.476Z,27.47
2022-08-22T12:26:36.411Z,26.68
2022-08-22T12:29:44.738Z,25.97
2022-08-22T12:32:56.329Z,25.84
2022-08-22T12:35:52.834Z,26.50
2022-08-22T12:38:47.483Z,27.13
2022-08-22T12:41:48.162Z,26.59
2022-08-22T12:44:39.878Z,26.62
2022-08-22T12:47:11.779Z,26.68
2022-08-22T12:50:03.857Z,26.14
2022-08-22T12:52:46.116Z,26.11
2022-08-22T12:55:28.005Z,26.48
2022-08-22T12:58:04.911Z,25.42
2022-08-22T13:00:47.270Z,25.54
2022-08-22T13:03:43.525Z,25.63
2022-08-22T13:06:35.100Z,25.15
2022-08-22T13:09:18.692Z,24.90
2022-08-22T13:11:48.944Z,25.07
2022-08-22T13:14:25.994Z,25.35
2022-08-22T13:17:00.053Z,25.92
2022-08-22T13:20:01.968Z,25.43
2022-08-22T13:22:34.832Z,25.28
2022-08-22T13:25:08.629Z,24.66
2022-08-22T13:28:03.373Z,25.42
2022-08-22T13:30:38.792Z,24.81
2022-08-22T13:33:12.896Z,24.27
2022-08-22T13:36:10.839Z,24.58
2022-08-22T13:38:52.569Z,24.72
2022-08-22T13:41:24.989Z,24.16
2022-08-22T13:44:13.539Z,23.49
2022-08-22T13:47:10.845Z,24.55
2022-08-22T13:49:35.968Z,24.51
2022-08-22T13:52:29.401Z,24.97
2022-08-22T13:55:12.537Z,25.22
2022-08-22T13:57:51.697Z,25.34
2022-08-22T14:00:28.527Z,26.01
2022-08-22T14:03:20.100Z,25.93
2022-08-22T14:05:54.558Z,26.29
2022-08-22T14:08:36.853Z,26.25
2022-08-22T14:11:19.745Z,26.36
2022-08-22T14:13:55.588Z,26.67
2022-08-22T14:16:42.808Z,26.41
2022-08-22T14:19:13.408Z,26.12
2022-08-22T14:21:53.477Z,25.66
2022-08-22T14:24:32.999Z,25.40
2022-08-22T14:27:07.570Z,25.19
2022-08-22T14:29:50.512Z,24.93
2022-08-22T14:32:27.633Z,24.87
2022-08-22T14:35:23.139Z,25.01
2022-08-22T14:37:59.689Z,24.75
2022-08-22T14:40:33.624Z,24.93
2022-08-22T14:43:29.694Z,24.86
2022-08-22T14:46:02.218Z,24.54
2022-08-22T14:48:40.742Z,24.37
2022-08-22T14:51:26.202Z,25.04
2022-08-22T14:54:00.570Z,25.26
2022-08-22T14:56:30.760Z,25.43
2022-08-22T14:59:00.898Z,25.49
2022-08-22T15:01:32.742Z,25.18
2022-08-22T15:04:04.609Z,25.08
2022-08-22T15:06:47.596Z,24.11
2022-08-22T15:09:34.723Z,24.17
2022-08-22T15:12:03.997Z,24.54
2022-08-22T15:14:37.490Z,24.04
2022-08-22T15:17:09.464Z,24.70
2022-08-22T15:19:41.066Z,24.00
2022-08-22T15:22:11.323Z,24.25
2022-08-22T15:25:02.474Z,24.20
2022-08-22T15:27:32.698Z,24.51
2022-08-22T15:30:02.970Z,25.22
2022-08-22T15:32:34.943Z,25.37
2022-08-22T15:35:31.874Z,26.08
2022-08-22T15:38:05.536Z,26.51
2022-08-22T15:40:45.870Z,26.58
2022-08-22T15:43:23.626Z,25.88
2022-08-22T15:46:07.369Z,25.84
2022-08-22T15:48:39.014Z,25.73
2022-08-22T15:51:13.411Z,24.64
2022-08-22T15:54:01.485Z,23.42
2022-08-22T15:56:32.491Z,23.50
2022-08-22T15:59:31.254Z,21.82
2022-08-22T16:02:30.452Z,21.60
2022-08-22T16:05:28.839Z,21.68
2022-08-22T16:07:58.103Z,21.99
2022-08-22T16:10:24.705Z,22.36
2022-08-22T16:13:16.835Z,22.82
2022-08-22T16:15:56.555Z,22.50
2022-08-22T16:18:36.885Z,21.39
2022-08-22T16:21:16.603Z,20.02
2022-08-22T16:23:49.659Z,18.85
2022-08-22T16:26:31.076Z,18.09
2022-08-22T16:29:18.019Z,19.39
2022-08-22T16:31:44.765Z,21.79
2022-08-22T16:34:17.358Z,22.74
2022-08-22T16:36:47.131Z,24.53
2022-08-22T16:39:40.903Z,26.16
2022-08-22T16:42:18.226Z,26.79
2022-08-22T16:45:05.132Z,27.71
2022-08-22T16:47:40.064Z,28.49
2022-08-22T16:50:27.192Z,28.99
2022-08-22T16:52:59.667Z,29.68
2022-08-22T16:55:29.269Z,30.11
2022-08-22T16:58:06.436Z,30.58
2022-08-22T17:00:39.024Z,31.27
2022-08-22T17:03:11.692Z,30.68
2022-08-22T17:05:54.791Z,31.94
2022-08-22T17:09:01.408Z,32.39
2022-08-22T17:11:49.642Z,32.20
2022-08-22T17:14:56.050Z,33.06
2022-08-22T17:17:28.948Z,33.48
2022-08-22T17:20:08.251Z,33.22
2022-08-22T17:23:02.455Z,33.96
2022-08-22T17:25:59.047Z,33.97
2022-08-22T17:28:47.423Z,34.23
2022-08-22T17:31:40.546Z,34.79
2022-08-22T17:34:19.171Z,34.96
2022-08-22T17:37:01.024Z,34.96
2022-08-22T17:39:45.717Z,35.67
2022-08-22T17:43:08.364Z,35.84
2022-08-22T17:45:53.161Z,35.67
2022-08-22T17:48:28.542Z,35.72
2022-08-22T17:51:03.962Z,35.83
2022-08-22T17:53:44.968Z,35.92
2022-08-22T17:56:27.935Z,36.14
2022-08-22T17:59:09.023Z,35.90
2022-08-22T18:01:49.069Z,36.06
2022-08-22T18:04:57.378Z,36.49
2022-08-22T18:07:43.011Z,36.68
2022-08-22T18:10:18.040Z,37.80
2022-08-22T18:12:53.631Z,37.35
2022-08-22T18:15:28.394Z,36.75
2022-08-22T18:18:07.521Z,38.27
2022-08-22T18:21:02.567Z,38.09
2022-08-22T18:23:47.506Z,38.24
2022-08-22T18:26:24.014Z,38.17
2022-08-22T18:29:17.096Z,38.21
2022-08-22T18:32:11.075Z,39.54
2022-08-22T18:34:50.020Z,39.53
2022-08-22T18:37:24.419Z,39.20
2022-08-22T18:39:59.848Z,39.74
2022-08-22T18:42:35.263Z,39.68
2022-08-22T18:45:03.026Z,40.57
2022-08-22T18:47:33.543Z,39.82
2022-08-22T18:50:32.291Z,40.81
2022-08-22T18:52:59.497Z,40.24
2022-08-22T18:55:56.084Z,40.55
2022-08-22T18:58:54.218Z,40.00
2022-08-22T19:01:52.047Z,40.93
2022-08-22T19:04:24.669Z,40.97
2022-08-22T19:07:25.390Z,41.68
2022-08-22T19:10:36.851Z,41.73
2022-08-22T19:13:09.153Z,41.61
2022-08-22T19:16:06.761Z,42.61
2022-08-22T19:18:42.531Z,43.26
2022-08-22T19:21:34.699Z,43.64
2022-08-22T19:24:10.753Z,43.36
2022-08-22T19:27:05.616Z,43.29
2022-08-22T19:29:32.051Z,44.71
2022-08-22T19:32:12.988Z,44.65
2022-08-22T19:34:46.967Z,45.15
2022-08-22T19:37:30.786Z,44.99
2022-08-22T19:40:08.966Z,45.74
2022-08-22T19:42:38.199Z,45.35
2022-08-22T19:45:22.312Z,46.33
2022-08-22T19:48:00.345Z,46.20
2022-08-22T19:50:42.354Z,46.75
2022-08-22T19:53:39.746Z,47.49
2022-08-22T19:56:22.396Z,47.83
2022-08-22T19:59:16.561Z,49.04
2022-08-22T20:01:51.166Z,48.46
2022-08-22T20:04:23.826Z,49.08
2022-08-22T20:07:37.862Z,49.09
2022-08-22T20:10:41.159Z,50.28
2022-08-22T20:13:18.429Z,49.64
2022-08-22T20:16:05.940Z,50.35
2022-08-22T20:19:09.639Z,50.82
2022-08-22T20:21:49.111Z,51.73
2022-08-22T20:24:15.548Z,50.73
2022-08-22T20:27:10.124Z,51.60
2022-08-22T20:29:36.739Z,51.21
2022-08-22T20:32:06.084Z,51.67
2022-08-22T20:34:37.247Z,51.68
2022-08-22T20:37:29.028Z,52.29
2022-08-22T20:40:32.284Z,52.87
2022-08-22T20:43:02.675Z,52.07
2022-08-22T20:45:43.624Z,53.04
2022-08-22T20:48:11.088Z,52.20
2022-08-22T20:50:37.803Z,53.22
2022-08-22T20:53:15.166Z,52.40
2022-08-22T20:55:56.501Z,51.62
2022-08-22T20:58:26.157Z,52.78
2022-08-22T21:00:56.505Z,52.32
2022-08-22T21:03:45.798Z,53.28
2022-08-22T21:06:20.472Z,52.39
2022-08-22T21:09:11.814Z,52.75
2022-08-22T21:11:40.898Z,52.29
2022-08-22T21:14:25.646Z,53.91
2022-08-22T21:16:53.079Z,52.58
2022-08-22T21:19:24.888Z,52.42
2022-08-22T21:21:51.586Z,53.38
2022-08-22T21:24:18.602Z,52.63
2022-08-22T21:26:45.038Z,52.78
2022-08-22T21:29:14.456Z,53.87
2022-08-22T21:32:04.474Z,53.38
2022-08-22T21:34:33.923Z,53.55
2022-08-22T21:37:08.378Z,53.42
2022-08-22T21:39:37.608Z,54.11
2022-08-22T21:42:03.954Z,54.51
2022-08-22T21:44:54.234Z,54.74
2022-08-22T21:47:31.274Z,55.23
2022-08-22T21:50:13.426Z,54.00
2022-08-22T21:52:53.452Z,55.63
2022-08-22T21:55:27.322Z,54.74
2022-08-22T21:58:35.097Z,54.62
2022-08-22T22:01:24.990Z,55.42
2022-08-22T22:03:54.541Z,56.69
2022-08-22T22:06:21.018Z,56.27
2022-08-22T22:08:47.511Z,56.81
2022-08-22T22:11:15.399Z,57.08
2022-08-22T22:13:42.798Z,56.90
2022-08-22T22:16:12.006Z,56.82
2022-08-22T22:18:39.309Z,57.01
2022-08-22T22:21:05.869Z,57.68
2022-08-22T22:23:32.465Z,57.19
2022-08-22T22:26:02.380Z,56.65
2022-08-22T22:28:34.754Z,57.09
2022-08-22T22:31:01.339Z,57.50
2022-08-22T22:33:31.721Z,57.84
2022-08-22T22:36:03.778Z,58.75
2022-08-22T22:38:30.252Z,57.45
2022-08-22T22:40:56.750Z,57.88
2022-08-22T22:43:23.812Z,58.33
2022-08-22T22:45:50.596Z,58.11
2022-08-22T22:48:24.338Z,57.63
2022-08-22T22:50:54.669Z,58.42
2022-08-22T22:53:33.827Z,58.03
2022-08-22T22:56:06.653Z,57.78
2022-08-22T22:58:37.583Z,58.48
2022-08-22T23:01:24.983Z,58.82
2022-08-22T23:04:03.248Z,58.95
2022-08-22T23:06:33.015Z,59.14
2022-08-22T23:08:59.644Z,60.89
2022-08-22T23:11:30.375Z,61.70
2022-08-22T23:13:57.336Z,61.07
2022-08-22T23:16:27.131Z,61.26
2022-08-22T23:18:54.075Z,62.54
2022-08-22T23:21:26.389Z,62.90
2022-08-22T23:23:55.620Z,61.64
2022-08-22T23:26:22.282Z,61.92
2022-08-22T23:28:49.097Z,61.42
2022-08-22T23:31:28.838Z,62.03
2022-08-22T23:33:56.080Z,63.70
2022-08-22T23:36:23.658Z,62.42
2022-08-22T23:38:51.875Z,63.74
2022-08-22T23:41:19.409Z,63.75
2022-08-22T23:43:49.531Z,63.95
2022-08-22T23:46:20.447Z,63.04
2022-08-22T23:48:51.135Z,63.94
2022-08-22T23:51:23.145Z,63.92
2022-08-22T23:53:50.124Z,65.17
2022-08-22T23:56:26.679Z,63.70
2022-08-22T23:58:53.571Z,64.14
